sensor_id;sensor_type;location;lat;lon;timestamp;P1;durP1;ratioP1;P2;durP2;ratioP2
53879;SDS011;39791;53.184;5.486;2023-03-16T00:00:25;7.15;;;3.72;;
53879;SDS011;39791;53.184;5.486;2023-03-16T00:02:51;6.15;;;2.97;;
53879;SDS011;39791;53.184;5.486;2023-03-16T00:05:17;10.75;;;3.25;;
53879;SDS011;39791;53.184;5.486;2023-03-16T00:07:42;6.68;;;3.30;;
53879;SDS011;39791;53.184;5.486;2023-03-16T00:10:09;9.57;;;3.13;;
53879;SDS011;39791;53.184;5.486;2023-03-16T00:12:36;7.00;;;3.42;;
53879;SDS011;39791;53.184;5.486;2023-03-16T00:15:02;11.02;;;4.15;;
53879;SDS011;39791;53.184;5.486;2023-03-16T00:17:28;7.18;;;3.22;;
53879;SDS011;39791;53.184;5.486;2023-03-16T00:19:55;7.45;;;3.17;;
53879;SDS011;39791;53.184;5.486;2023-03-16T00:22:22;9.13;;;3.10;;
53879;SDS011;39791;53.184;5.486;2023-03-16T00:24:49;6.80;;;3.40;;
53879;SDS011;39791;53.184;5.486;2023-03-16T00:27:16;11.48;;;3.10;;
53879;SDS011;39791;53.184;5.486;2023-03-16T00:29:43;9.70;;;3.15;;
53879;SDS011;39791;53.184;5.486;2023-03-16T00:32:15;8.60;;;3.53;;
53879;SDS011;39791;53.184;5.486;2023-03-16T00:34:43;6.18;;;3.33;;
53879;SDS011;39791;53.184;5.486;2023-03-16T00:37:11;7.95;;;2.95;;
53879;SDS011;39791;53.184;5.486;2023-03-16T00:39:42;8.63;;;2.95;;
53879;SDS011;39791;53.184;5.486;2023-03-16T00:42:09;4.63;;;2.58;;
53879;SDS011;39791;53.184;5.486;2023-03-16T00:44:36;8.43;;;3.45;;
53879;SDS011;39791;53.184;5.486;2023-03-16T00:47:03;6.30;;;3.47;;
53879;SDS011;39791;53.184;5.486;2023-03-16T00:49:30;6.97;;;3.30;;
53879;SDS011;39791;53.184;5.486;2023-03-16T00:51:59;8.98;;;4.00;;
53879;SDS011;39791;53.184;5.486;2023-03-16T00:54:25;6.45;;;3.30;;
53879;SDS011;39791;53.184;5.486;2023-03-16T00:56:51;7.00;;;3.53;;
53879;SDS011;39791;53.184;5.486;2023-03-16T00:59:17;4.70;;;2.72;;
53879;SDS011;39791;53.184;5.486;2023-03-16T01:01:44;4.57;;;2.80;;
53879;SDS011;39791;53.184;5.486;2023-03-16T01:04:11;5.43;;;2.65;;
53879;SDS011;39791;53.184;5.486;2023-03-16T01:06:37;6.78;;;3.40;;
53879;SDS011;39791;53.184;5.486;2023-03-16T01:09:03;5.55;;;3.47;;
53879;SDS011;39791;53.184;5.486;2023-03-16T01:11:29;6.70;;;3.10;;
53879;SDS011;39791;53.184;5.486;2023-03-16T01:13:58;5.97;;;3.78;;
53879;SDS011;39791;53.184;5.486;2023-03-16T01:16:24;7.78;;;3.40;;
53879;SDS011;39791;53.184;5.486;2023-03-16T01:18:50;8.88;;;3.30;;
53879;SDS011;39791;53.184;5.486;2023-03-16T01:21:20;9.05;;;3.42;;
53879;SDS011;39791;53.184;5.486;2023-03-16T01:23:46;7.55;;;3.70;;
53879;SDS011;39791;53.184;5.486;2023-03-16T01:26:12;4.55;;;2.75;;
53879;SDS011;39791;53.184;5.486;2023-03-16T01:28:40;7.25;;;2.85;;
53879;SDS011;39791;53.184;5.486;2023-03-16T01:31:07;6.65;;;3.10;;
53879;SDS011;39791;53.184;5.486;2023-03-16T01:33:34;3.95;;;2.92;;
53879;SDS011;39791;53.184;5.486;2023-03-16T01:36:05;8.82;;;3.60;;
53879;SDS011;39791;53.184;5.486;2023-03-16T01:38:36;6.43;;;3.65;;
53879;SDS011;39791;53.184;5.486;2023-03-16T01:41:02;4.22;;;2.65;;
53879;SDS011;39791;53.184;5.486;2023-03-16T01:43:29;6.45;;;3.55;;
53879;SDS011;39791;53.184;5.486;2023-03-16T01:51:25;5.72;;;3.80;;
53879;SDS011;39791;53.184;5.486;2023-03-16T01:57:20;6.20;;;2.97;;
53879;SDS011;39791;53.184;5.486;2023-03-16T02:00:11;10.20;;;4.22;;
53879;SDS011;39791;53.184;5.486;2023-03-16T02:02:48;6.50;;;3.28;;
53879;SDS011;39791;53.184;5.486;2023-03-16T02:05:20;6.43;;;3.13;;
53879;SDS011;39791;53.184;5.486;2023-03-16T02:07:50;8.52;;;3.20;;
53879;SDS011;39791;53.184;5.486;2023-03-16T02:10:22;6.30;;;3.03;;
53879;SDS011;39791;53.184;5.486;2023-03-16T02:12:48;6.88;;;3.53;;
53879;SDS011;39791;53.184;5.486;2023-03-16T02:15:14;7.40;;;4.13;;
53879;SDS011;39791;53.184;5.486;2023-03-16T02:17:40;8.65;;;3.78;;
53879;SDS011;39791;53.184;5.486;2023-03-16T02:23:04;5.30;;;3.13;;
53879;SDS011;39791;53.184;5.486;2023-03-16T02:28:14;6.35;;;3.00;;
53879;SDS011;39791;53.184;5.486;2023-03-16T02:30:57;6.80;;;3.35;;
53879;SDS011;39791;53.184;5.486;2023-03-16T02:33:24;8.23;;;3.92;;
53879;SDS011;39791;53.184;5.486;2023-03-16T02:35:50;4.50;;;2.95;;
53879;SDS011;39791;53.184;5.486;2023-03-16T02:38:15;5.40;;;2.88;;
53879;SDS011;39791;53.184;5.486;2023-03-16T02:40:41;6.25;;;3.47;;
53879;SDS011;39791;53.184;5.486;2023-03-16T02:45:45;11.55;;;4.22;;
53879;SDS011;39791;53.184;5.486;2023-03-16T02:48:29;9.10;;;3.70;;
53879;SDS011;39791;53.184;5.486;2023-03-16T02:51:15;6.07;;;3.40;;
53879;SDS011;39791;53.184;5.486;2023-03-16T02:53:40;14.50;;;3.03;;
53879;SDS011;39791;53.184;5.486;2023-03-16T02:56:06;6.10;;;3.65;;
53879;SDS011;39791;53.184;5.486;2023-03-16T02:58:31;4.25;;;2.80;;
53879;SDS011;39791;53.184;5.486;2023-03-16T03:00:57;9.40;;;3.92;;
53879;SDS011;39791;53.184;5.486;2023-03-16T03:03:23;8.57;;;3.95;;
53879;SDS011;39791;53.184;5.486;2023-03-16T03:05:49;8.02;;;3.97;;
53879;SDS011;39791;53.184;5.486;2023-03-16T03:08:14;5.47;;;4.07;;
53879;SDS011;39791;53.184;5.486;2023-03-16T03:10:40;11.15;;;4.10;;
53879;SDS011;39791;53.184;5.486;2023-03-16T03:13:06;6.88;;;3.80;;
53879;SDS011;39791;53.184;5.486;2023-03-16T03:15:32;8.38;;;4.75;;
53879;SDS011;39791;53.184;5.486;2023-03-16T03:17:58;9.27;;;4.70;;
53879;SDS011;39791;53.184;5.486;2023-03-16T03:20:24;5.95;;;3.90;;
53879;SDS011;39791;53.184;5.486;2023-03-16T03:22:50;7.35;;;4.57;;
53879;SDS011;39791;53.184;5.486;2023-03-16T03:25:16;7.45;;;4.05;;
53879;SDS011;39791;53.184;5.486;2023-03-16T03:27:43;6.03;;;3.40;;
53879;SDS011;39791;53.184;5.486;2023-03-16T03:30:10;7.63;;;3.90;;
53879;SDS011;39791;53.184;5.486;2023-03-16T03:32:39;6.72;;;4.05;;
53879;SDS011;39791;53.184;5.486;2023-03-16T03:35:05;10.55;;;4.82;;
53879;SDS011;39791;53.184;5.486;2023-03-16T03:37:31;5.88;;;3.58;;
53879;SDS011;39791;53.184;5.486;2023-03-16T03:39:57;5.70;;;3.88;;
53879;SDS011;39791;53.184;5.486;2023-03-16T03:42:22;5.03;;;3.33;;
53879;SDS011;39791;53.184;5.486;2023-03-16T03:44:51;6.07;;;4.20;;
53879;SDS011;39791;53.184;5.486;2023-03-16T03:47:18;6.28;;;4.57;;
53879;SDS011;39791;53.184;5.486;2023-03-16T03:49:44;9.30;;;4.95;;
53879;SDS011;39791;53.184;5.486;2023-03-16T03:52:09;7.22;;;4.68;;
53879;SDS011;39791;53.184;5.486;2023-03-16T03:54:35;6.32;;;4.00;;
53879;SDS011;39791;53.184;5.486;2023-03-16T03:57:01;7.18;;;4.00;;
53879;SDS011;39791;53.184;5.486;2023-03-16T03:59:27;8.65;;;4.35;;
53879;SDS011;39791;53.184;5.486;2023-03-16T04:01:52;7.97;;;4.00;;
53879;SDS011;39791;53.184;5.486;2023-03-16T04:04:18;6.63;;;4.60;;
53879;SDS011;39791;53.184;5.486;2023-03-16T04:06:44;6.80;;;4.40;;
53879;SDS011;39791;53.184;5.486;2023-03-16T04:09:10;7.78;;;4.05;;
53879;SDS011;39791;53.184;5.486;2023-03-16T04:11:36;7.78;;;4.32;;
53879;SDS011;39791;53.184;5.486;2023-03-16T04:14:01;9.10;;;5.22;;
53879;SDS011;39791;53.184;5.486;2023-03-16T04:16:27;9.15;;;4.93;;
53879;SDS011;39791;53.184;5.486;2023-03-16T04:18:53;8.27;;;5.07;;
53879;SDS011;39791;53.184;5.486;2023-03-16T04:21:20;10.70;;;4.82;;
53879;SDS011;39791;53.184;5.486;2023-03-16T04:23:46;8.23;;;4.50;;
53879;SDS011;39791;53.184;5.486;2023-03-16T04:26:13;5.75;;;4.47;;
53879;SDS011;39791;53.184;5.486;2023-03-16T04:28:40;6.20;;;4.13;;
53879;SDS011;39791;53.184;5.486;2023-03-16T04:31:07;7.25;;;5.15;;
53879;SDS011;39791;53.184;5.486;2023-03-16T04:33:34;7.75;;;4.72;;
53879;SDS011;39791;53.184;5.486;2023-03-16T04:36:01;6.25;;;3.90;;
53879;SDS011;39791;53.184;5.486;2023-03-16T04:38:28;8.85;;;4.95;;
53879;SDS011;39791;53.184;5.486;2023-03-16T04:40:54;8.50;;;5.13;;
53879;SDS011;39791;53.184;5.486;2023-03-16T04:43:20;10.10;;;4.97;;
53879;SDS011;39791;53.184;5.486;2023-03-16T04:45:46;8.50;;;5.55;;
53879;SDS011;39791;53.184;5.486;2023-03-16T04:48:12;7.13;;;4.97;;
53879;SDS011;39791;53.184;5.486;2023-03-16T04:50:38;9.50;;;5.80;;
53879;SDS011;39791;53.184;5.486;2023-03-16T04:53:04;10.48;;;5.32;;
53879;SDS011;39791;53.184;5.486;2023-03-16T04:55:29;7.85;;;4.93;;
53879;SDS011;39791;53.184;5.486;2023-03-16T04:57:55;10.35;;;5.63;;
53879;SDS011;39791;53.184;5.486;2023-03-16T05:00:21;10.90;;;5.53;;
53879;SDS011;39791;53.184;5.486;2023-03-16T05:02:47;12.32;;;5.40;;
53879;SDS011;39791;53.184;5.486;2023-03-16T05:05:16;13.48;;;5.28;;
53879;SDS011;39791;53.184;5.486;2023-03-16T05:07:42;9.10;;;5.55;;
53879;SDS011;39791;53.184;5.486;2023-03-16T05:10:09;8.32;;;5.63;;
53879;SDS011;39791;53.184;5.486;2023-03-16T05:12:37;7.85;;;5.15;;
53879;SDS011;39791;53.184;5.486;2023-03-16T05:15:03;9.05;;;5.50;;
53879;SDS011;39791;53.184;5.486;2023-03-16T05:17:29;10.57;;;5.57;;
53879;SDS011;39791;53.184;5.486;2023-03-16T05:19:54;6.93;;;4.63;;
53879;SDS011;39791;53.184;5.486;2023-03-16T05:22:20;14.23;;;7.05;;
53879;SDS011;39791;53.184;5.486;2023-03-16T05:24:45;8.07;;;5.03;;
53879;SDS011;39791;53.184;5.486;2023-03-16T05:27:11;6.40;;;4.25;;
53879;SDS011;39791;53.184;5.486;2023-03-16T05:29:36;9.82;;;6.15;;
53879;SDS011;39791;53.184;5.486;2023-03-16T05:32:02;8.80;;;4.97;;
53879;SDS011;39791;53.184;5.486;2023-03-16T05:34:28;7.75;;;5.00;;
53879;SDS011;39791;53.184;5.486;2023-03-16T05:36:53;5.93;;;4.88;;
53879;SDS011;39791;53.184;5.486;2023-03-16T05:39:19;7.95;;;4.75;;
53879;SDS011;39791;53.184;5.486;2023-03-16T05:41:44;8.43;;;4.97;;
53879;SDS011;39791;53.184;5.486;2023-03-16T05:44:10;7.97;;;5.47;;
53879;SDS011;39791;53.184;5.486;2023-03-16T05:46:36;6.65;;;4.60;;
53879;SDS011;39791;53.184;5.486;2023-03-16T05:49:01;8.07;;;4.80;;
53879;SDS011;39791;53.184;5.486;2023-03-16T05:51:27;9.45;;;5.25;;
53879;SDS011;39791;53.184;5.486;2023-03-16T05:53:53;7.53;;;5.00;;
53879;SDS011;39791;53.184;5.486;2023-03-16T05:56:23;6.88;;;4.38;;
53879;SDS011;39791;53.184;5.486;2023-03-16T05:58:50;7.82;;;5.32;;
53879;SDS011;39791;53.184;5.486;2023-03-16T06:01:17;8.00;;;4.43;;
53879;SDS011;39791;53.184;5.486;2023-03-16T06:03:44;11.55;;;5.97;;
53879;SDS011;39791;53.184;5.486;2023-03-16T06:06:11;6.50;;;4.53;;
53879;SDS011;39791;53.184;5.486;2023-03-16T06:08:36;7.65;;;4.72;;
53879;SDS011;39791;53.184;5.486;2023-03-16T06:11:02;9.90;;;6.18;;
53879;SDS011;39791;53.184;5.486;2023-03-16T06:13:28;11.25;;;6.70;;
53879;SDS011;39791;53.184;5.486;2023-03-16T06:15:54;9.23;;;5.85;;
53879;SDS011;39791;53.184;5.486;2023-03-16T06:18:19;9.88;;;5.88;;
53879;SDS011;39791;53.184;5.486;2023-03-16T06:20:45;12.98;;;6.70;;
53879;SDS011;39791;53.184;5.486;2023-03-16T06:23:11;11.73;;;6.15;;
53879;SDS011;39791;53.184;5.486;2023-03-16T06:25:37;10.13;;;5.57;;
53879;SDS011;39791;53.184;5.486;2023-03-16T06:28:03;7.55;;;5.60;;
53879;SDS011;39791;53.184;5.486;2023-03-16T06:30:29;10.23;;;5.90;;
53879;SDS011;39791;53.184;5.486;2023-03-16T06:32:55;8.52;;;5.25;;
53879;SDS011;39791;53.184;5.486;2023-03-16T06:35:21;10.20;;;6.07;;
53879;SDS011;39791;53.184;5.486;2023-03-16T06:37:47;10.30;;;6.15;;
53879;SDS011;39791;53.184;5.486;2023-03-16T06:40:12;9.82;;;5.43;;
53879;SDS011;39791;53.184;5.486;2023-03-16T06:42:38;8.95;;;5.32;;
53879;SDS011;39791;53.184;5.486;2023-03-16T06:45:04;10.00;;;5.45;;
53879;SDS011;39791;53.184;5.486;2023-03-16T06:47:30;10.55;;;5.40;;
53879;SDS011;39791;53.184;5.486;2023-03-16T06:49:56;9.25;;;5.15;;
53879;SDS011;39791;53.184;5.486;2023-03-16T06:52:21;7.22;;;4.30;;
53879;SDS011;39791;53.184;5.486;2023-03-16T06:54:47;8.50;;;4.72;;
53879;SDS011;39791;53.184;5.486;2023-03-16T06:57:13;8.00;;;4.85;;
53879;SDS011;39791;53.184;5.486;2023-03-16T06:59:38;11.70;;;5.60;;
53879;SDS011;39791;53.184;5.486;2023-03-16T07:02:04;12.27;;;5.65;;
53879;SDS011;39791;53.184;5.486;2023-03-16T07:04:30;9.25;;;4.57;;
53879;SDS011;39791;53.184;5.486;2023-03-16T07:06:56;11.20;;;5.40;;
53879;SDS011;39791;53.184;5.486;2023-03-16T07:09:22;6.97;;;4.47;;
53879;SDS011;39791;53.184;5.486;2023-03-16T07:11:48;9.88;;;5.20;;
53879;SDS011;39791;53.184;5.486;2023-03-16T07:14:13;8.02;;;5.28;;
53879;SDS011;39791;53.184;5.486;2023-03-16T07:16:39;8.82;;;6.18;;
53879;SDS011;39791;53.184;5.486;2023-03-16T07:19:05;10.73;;;5.32;;
53879;SDS011;39791;53.184;5.486;2023-03-16T07:21:30;7.63;;;4.25;;
53879;SDS011;39791;53.184;5.486;2023-03-16T07:24:03;7.45;;;4.30;;
53879;SDS011;39791;53.184;5.486;2023-03-16T07:26:29;7.30;;;4.50;;
53879;SDS011;39791;53.184;5.486;2023-03-16T07:28:56;5.63;;;4.03;;
53879;SDS011;39791;53.184;5.486;2023-03-16T07:31:21;8.13;;;4.78;;
53879;SDS011;39791;53.184;5.486;2023-03-16T07:33:47;6.95;;;4.50;;
53879;SDS011;39791;53.184;5.486;2023-03-16T07:36:12;11.95;;;4.40;;
53879;SDS011;39791;53.184;5.486;2023-03-16T07:38:38;7.88;;;4.35;;
53879;SDS011;39791;53.184;5.486;2023-03-16T07:41:04;8.25;;;4.93;;
53879;SDS011;39791;53.184;5.486;2023-03-16T07:43:29;7.75;;;4.45;;
53879;SDS011;39791;53.184;5.486;2023-03-16T07:45:55;5.90;;;4.22;;
53879;SDS011;39791;53.184;5.486;2023-03-16T07:48:20;7.53;;;5.40;;
53879;SDS011;39791;53.184;5.486;2023-03-16T07:50:46;6.65;;;4.93;;
53879;SDS011;39791;53.184;5.486;2023-03-16T07:53:12;7.43;;;4.13;;
53879;SDS011;39791;53.184;5.486;2023-03-16T07:55:39;12.65;;;5.18;;
53879;SDS011;39791;53.184;5.486;2023-03-16T07:58:06;7.70;;;4.43;;
53879;SDS011;39791;53.184;5.486;2023-03-16T08:00:34;7.72;;;4.65;;
53879;SDS011;39791;53.184;5.486;2023-03-16T08:03:00;7.10;;;4.45;;
53879;SDS011;39791;53.184;5.486;2023-03-16T08:05:27;8.65;;;4.57;;
53879;SDS011;39791;53.184;5.486;2023-03-16T08:07:53;7.47;;;4.28;;
53879;SDS011;39791;53.184;5.486;2023-03-16T08:10:20;10.63;;;4.65;;
53879;SDS011;39791;53.184;5.486;2023-03-16T08:12:46;8.65;;;4.28;;
53879;SDS011;39791;53.184;5.486;2023-03-16T08:15:11;9.13;;;5.13;;
53879;SDS011;39791;53.184;5.486;2023-03-16T08:17:37;8.15;;;5.68;;
53879;SDS011;39791;53.184;5.486;2023-03-16T08:20:05;6.55;;;4.03;;
53879;SDS011;39791;53.184;5.486;2023-03-16T08:22:36;12.25;;;4.97;;
53879;SDS011;39791;53.184;5.486;2023-03-16T08:25:02;6.53;;;4.18;;
53879;SDS011;39791;53.184;5.486;2023-03-16T08:27:29;6.85;;;4.30;;
53879;SDS011;39791;53.184;5.486;2023-03-16T08:29:55;9.50;;;4.35;;
53879;SDS011;39791;53.184;5.486;2023-03-16T08:32:21;8.50;;;4.28;;
53879;SDS011;39791;53.184;5.486;2023-03-16T08:34:46;10.32;;;5.10;;
53879;SDS011;39791;53.184;5.486;2023-03-16T08:37:12;10.07;;;4.07;;
53879;SDS011;39791;53.184;5.486;2023-03-16T08:39:39;7.93;;;4.40;;
53879;SDS011;39791;53.184;5.486;2023-03-16T08:42:06;6.85;;;4.28;;
53879;SDS011;39791;53.184;5.486;2023-03-16T08:44:32;5.47;;;3.40;;
53879;SDS011;39791;53.184;5.486;2023-03-16T08:46:58;9.88;;;4.45;;
53879;SDS011;39791;53.184;5.486;2023-03-16T08:49:24;9.65;;;4.35;;
53879;SDS011;39791;53.184;5.486;2023-03-16T08:51:51;6.90;;;4.22;;
53879;SDS011;39791;53.184;5.486;2023-03-16T08:54:18;7.18;;;4.40;;
53879;SDS011;39791;53.184;5.486;2023-03-16T08:56:43;8.05;;;4.55;;
53879;SDS011;39791;53.184;5.486;2023-03-16T08:59:09;9.07;;;5.18;;
53879;SDS011;39791;53.184;5.486;2023-03-16T09:01:35;6.47;;;4.95;;
53879;SDS011;39791;53.184;5.486;2023-03-16T09:04:00;9.35;;;4.30;;
53879;SDS011;39791;53.184;5.486;2023-03-16T09:06:27;7.93;;;4.82;;
53879;SDS011;39791;53.184;5.486;2023-03-16T09:08:53;5.70;;;3.75;;
53879;SDS011;39791;53.184;5.486;2023-03-16T09:11:20;7.57;;;4.35;;
53879;SDS011;39791;53.184;5.486;2023-03-16T09:13:46;5.28;;;3.58;;
53879;SDS011;39791;53.184;5.486;2023-03-16T09:16:13;6.00;;;3.63;;
53879;SDS011;39791;53.184;5.486;2023-03-16T09:18:40;5.07;;;3.45;;
53879;SDS011;39791;53.184;5.486;2023-03-16T09:21:07;8.43;;;3.83;;
53879;SDS011;39791;53.184;5.486;2023-03-16T09:23:37;7.70;;;4.90;;
53879;SDS011;39791;53.184;5.486;2023-03-16T09:26:04;7.53;;;3.85;;
53879;SDS011;39791;53.184;5.486;2023-03-16T09:28:31;6.57;;;4.30;;
53879;SDS011;39791;53.184;5.486;2023-03-16T09:30:58;9.25;;;4.45;;
53879;SDS011;39791;53.184;5.486;2023-03-16T09:33:25;5.85;;;3.70;;
53879;SDS011;39791;53.184;5.486;2023-03-16T09:35:56;15.13;;;4.53;;
53879;SDS011;39791;53.184;5.486;2023-03-16T09:38:23;9.77;;;4.47;;
53879;SDS011;39791;53.184;5.486;2023-03-16T09:40:59;3.88;;;3.20;;
53879;SDS011;39791;53.184;5.486;2023-03-16T09:46:07;9.07;;;4.15;;
53879;SDS011;39791;53.184;5.486;2023-03-16T09:48:48;6.83;;;3.70;;
53879;SDS011;39791;53.184;5.486;2023-03-16T09:51:22;5.32;;;3.88;;
53879;SDS011;39791;53.184;5.486;2023-03-16T09:57:04;11.38;;;4.10;;
53879;SDS011;39791;53.184;5.486;2023-03-16T09:59:35;7.93;;;3.47;;
53879;SDS011;39791;53.184;5.486;2023-03-16T10:02:44;7.72;;;4.35;;
53879;SDS011;39791;53.184;5.486;2023-03-16T10:05:14;5.00;;;3.50;;
53879;SDS011;39791;53.184;5.486;2023-03-16T10:10:40;7.40;;;4.00;;
53879;SDS011;39791;53.184;5.486;2023-03-16T10:16:10;9.38;;;4.40;;
53879;SDS011;39791;53.184;5.486;2023-03-16T10:18:52;7.55;;;3.78;;
53879;SDS011;39791;53.184;5.486;2023-03-16T10:21:24;7.47;;;4.28;;
53879;SDS011;39791;53.184;5.486;2023-03-16T10:23:50;8.55;;;4.60;;
53879;SDS011;39791;53.184;5.486;2023-03-16T10:26:25;6.20;;;3.42;;
53879;SDS011;39791;53.184;5.486;2023-03-16T10:28:58;7.32;;;3.90;;
53879;SDS011;39791;53.184;5.486;2023-03-16T10:31:25;9.70;;;4.30;;
53879;SDS011;39791;53.184;5.486;2023-03-16T10:33:53;9.00;;;4.18;;
53879;SDS011;39791;53.184;5.486;2023-03-16T10:36:30;7.03;;;4.40;;
53879;SDS011;39791;53.184;5.486;2023-03-16T10:39:03;6.53;;;3.80;;
53879;SDS011;39791;53.184;5.486;2023-03-16T10:41:37;10.63;;;4.30;;
53879;SDS011;39791;53.184;5.486;2023-03-16T10:46:41;7.03;;;4.50;;
53879;SDS011;39791;53.184;5.486;2023-03-16T10:49:22;6.18;;;4.53;;
53879;SDS011;39791;53.184;5.486;2023-03-16T10:51:52;6.10;;;4.45;;
53879;SDS011;39791;53.184;5.486;2023-03-16T10:54:26;5.45;;;3.67;;
53879;SDS011;39791;53.184;5.486;2023-03-16T10:57:11;5.60;;;3.90;;
53879;SDS011;39791;53.184;5.486;2023-03-16T10:59:49;6.80;;;4.15;;
53879;SDS011;39791;53.184;5.486;2023-03-16T11:02:18;5.90;;;3.58;;
53879;SDS011;39791;53.184;5.486;2023-03-16T11:04:47;7.28;;;4.30;;
53879;SDS011;39791;53.184;5.486;2023-03-16T11:07:16;6.95;;;3.67;;
53879;SDS011;39791;53.184;5.486;2023-03-16T11:09:43;6.00;;;3.60;;
53879;SDS011;39791;53.184;5.486;2023-03-16T11:12:18;11.80;;;4.20;;
53879;SDS011;39791;53.184;5.486;2023-03-16T11:14:48;11.43;;;4.90;;
53879;SDS011;39791;53.184;5.486;2023-03-16T11:17:18;5.97;;;3.67;;
53879;SDS011;39791;53.184;5.486;2023-03-16T11:19:51;5.93;;;4.10;;
53879;SDS011;39791;53.184;5.486;2023-03-16T11:22:21;7.15;;;4.30;;
53879;SDS011;39791;53.184;5.486;2023-03-16T11:27:25;5.07;;;3.45;;
53879;SDS011;39791;53.184;5.486;2023-03-16T11:30:07;4.47;;;3.38;;
53879;SDS011;39791;53.184;5.486;2023-03-16T11:32:47;5.65;;;3.70;;
53879;SDS011;39791;53.184;5.486;2023-03-16T11:35:37;8.73;;;3.67;;
53879;SDS011;39791;53.184;5.486;2023-03-16T11:38:09;7.88;;;3.78;;
53879;SDS011;39791;53.184;5.486;2023-03-16T11:43:35;5.60;;;3.00;;
53879;SDS011;39791;53.184;5.486;2023-03-16T11:46:21;6.05;;;3.60;;
53879;SDS011;39791;53.184;5.486;2023-03-16T11:51:32;9.20;;;3.25;;
53879;SDS011;39791;53.184;5.486;2023-03-16T12:00:02;4.22;;;3.13;;
53879;SDS011;39791;53.184;5.486;2023-03-16T12:11:22;5.20;;;3.22;;
53879;SDS011;39791;53.184;5.486;2023-03-16T12:22:30;7.03;;;4.10;;
53879;SDS011;39791;53.184;5.486;2023-03-16T12:25:01;11.88;;;4.15;;
53879;SDS011;39791;53.184;5.486;2023-03-16T12:27:29;7.30;;;3.70;;
53879;SDS011;39791;53.184;5.486;2023-03-16T12:32:48;6.05;;;3.97;;
53879;SDS011;39791;53.184;5.486;2023-03-16T12:38:35;8.18;;;4.25;;
53879;SDS011;39791;53.184;5.486;2023-03-16T12:41:26;7.43;;;3.50;;
53879;SDS011;39791;53.184;5.486;2023-03-16T12:44:22;6.13;;;3.72;;
53879;SDS011;39791;53.184;5.486;2023-03-16T12:49:23;8.88;;;4.47;;
53879;SDS011;39791;53.184;5.486;2023-03-16T12:51:57;5.95;;;3.97;;
53879;SDS011;39791;53.184;5.486;2023-03-16T12:54:25;4.88;;;3.00;;
53879;SDS011;39791;53.184;5.486;2023-03-16T12:56:52;6.05;;;4.00;;
53879;SDS011;39791;53.184;5.486;2023-03-16T12:59:24;7.30;;;3.40;;
53879;SDS011;39791;53.184;5.486;2023-03-16T13:02:23;6.22;;;3.35;;
53879;SDS011;39791;53.184;5.486;2023-03-16T13:04:55;5.72;;;3.53;;
53879;SDS011;39791;53.184;5.486;2023-03-16T13:07:25;7.35;;;3.90;;
53879;SDS011;39791;53.184;5.486;2023-03-16T13:09:55;9.63;;;4.35;;
53879;SDS011;39791;53.184;5.486;2023-03-16T13:12:33;8.50;;;4.25;;
53879;SDS011;39791;53.184;5.486;2023-03-16T13:15:01;4.95;;;3.70;;
53879;SDS011;39791;53.184;5.486;2023-03-16T13:17:43;6.68;;;3.85;;
53879;SDS011;39791;53.184;5.486;2023-03-16T13:22:42;7.93;;;4.13;;
53879;SDS011;39791;53.184;5.486;2023-03-16T13:25:15;9.15;;;3.90;;
53879;SDS011;39791;53.184;5.486;2023-03-16T13:27:43;5.57;;;3.40;;
53879;SDS011;39791;53.184;5.486;2023-03-16T13:30:14;8.82;;;3.75;;
53879;SDS011;39791;53.184;5.486;2023-03-16T13:32:42;6.38;;;3.03;;
53879;SDS011;39791;53.184;5.486;2023-03-16T13:35:12;10.00;;;3.97;;
53879;SDS011;39791;53.184;5.486;2023-03-16T13:37:41;6.03;;;3.42;;
53879;SDS011;39791;53.184;5.486;2023-03-16T13:40:40;6.93;;;3.38;;
53879;SDS011;39791;53.184;5.486;2023-03-16T13:43:02;5.95;;;3.72;;
53879;SDS011;39791;53.184;5.486;2023-03-16T13:45:30;7.57;;;3.60;;
53879;SDS011;39791;53.184;5.486;2023-03-16T13:47:57;8.70;;;3.80;;
53879;SDS011;39791;53.184;5.486;2023-03-16T13:50:24;7.82;;;3.63;;
53879;SDS011;39791;53.184;5.486;2023-03-16T13:52:56;6.72;;;3.45;;
53879;SDS011;39791;53.184;5.486;2023-03-16T13:55:43;6.22;;;3.88;;
53879;SDS011;39791;53.184;5.486;2023-03-16T13:58:18;6.10;;;3.80;;
53879;SDS011;39791;53.184;5.486;2023-03-16T14:00:46;6.95;;;3.70;;
53879;SDS011;39791;53.184;5.486;2023-03-16T14:03:16;6.65;;;3.83;;
53879;SDS011;39791;53.184;5.486;2023-03-16T14:05:44;6.85;;;3.58;;
53879;SDS011;39791;53.184;5.486;2023-03-16T14:08:16;5.35;;;3.60;;
53879;SDS011;39791;53.184;5.486;2023-03-16T14:10:43;6.60;;;4.18;;
53879;SDS011;39791;53.184;5.486;2023-03-16T14:15:52;7.80;;;3.85;;
53879;SDS011;39791;53.184;5.486;2023-03-16T14:18:43;10.13;;;4.90;;
53879;SDS011;39791;53.184;5.486;2023-03-16T14:21:15;7.97;;;4.00;;
53879;SDS011;39791;53.184;5.486;2023-03-16T14:23:44;6.80;;;4.07;;
53879;SDS011;39791;53.184;5.486;2023-03-16T14:26:13;8.50;;;4.60;;
53879;SDS011;39791;53.184;5.486;2023-03-16T14:28:40;9.65;;;4.50;;
53879;SDS011;39791;53.184;5.486;2023-03-16T14:31:18;8.13;;;4.00;;
53879;SDS011;39791;53.184;5.486;2023-03-16T14:33:44;6.97;;;3.70;;
53879;SDS011;39791;53.184;5.486;2023-03-16T14:38:41;6.47;;;3.88;;
53879;SDS011;39791;53.184;5.486;2023-03-16T14:41:22;6.95;;;3.92;;
53879;SDS011;39791;53.184;5.486;2023-03-16T14:44:01;8.43;;;4.40;;
53879;SDS011;39791;53.184;5.486;2023-03-16T14:46:29;6.47;;;3.75;;
53879;SDS011;39791;53.184;5.486;2023-03-16T14:49:00;7.38;;;4.28;;
53879;SDS011;39791;53.184;5.486;2023-03-16T14:51:34;12.13;;;4.10;;
53879;SDS011;39791;53.184;5.486;2023-03-16T14:54:12;10.88;;;4.97;;
53879;SDS011;39791;53.184;5.486;2023-03-16T14:56:40;9.32;;;4.50;;
53879;SDS011;39791;53.184;5.486;2023-03-16T14:59:07;11.65;;;4.50;;
53879;SDS011;39791;53.184;5.486;2023-03-16T15:01:33;4.93;;;3.15;;
53879;SDS011;39791;53.184;5.486;2023-03-16T15:03:59;8.38;;;4.10;;
53879;SDS011;39791;53.184;5.486;2023-03-16T15:06:26;7.78;;;3.80;;
53879;SDS011;39791;53.184;5.486;2023-03-16T15:08:51;7.90;;;4.10;;
53879;SDS011;39791;53.184;5.486;2023-03-16T15:11:18;7.97;;;3.72;;
53879;SDS011;39791;53.184;5.486;2023-03-16T15:13:49;7.35;;;3.80;;
53879;SDS011;39791;53.184;5.486;2023-03-16T15:16:15;7.13;;;3.95;;
53879;SDS011;39791;53.184;5.486;2023-03-16T15:18:40;6.43;;;4.05;;
53879;SDS011;39791;53.184;5.486;2023-03-16T15:21:13;5.00;;;3.80;;
53879;SDS011;39791;53.184;5.486;2023-03-16T15:23:42;6.80;;;3.63;;
53879;SDS011;39791;53.184;5.486;2023-03-16T15:26:09;6.22;;;4.10;;
53879;SDS011;39791;53.184;5.486;2023-03-16T15:28:37;8.80;;;3.80;;
53879;SDS011;39791;53.184;5.486;2023-03-16T15:31:02;8.32;;;3.80;;
53879;SDS011;39791;53.184;5.486;2023-03-16T15:33:28;6.82;;;3.72;;
53879;SDS011;39791;53.184;5.486;2023-03-16T15:35:56;4.75;;;3.72;;
53879;SDS011;39791;53.184;5.486;2023-03-16T15:40:50;6.80;;;3.83;;
53879;SDS011;39791;53.184;5.486;2023-03-16T15:43:18;8.07;;;3.70;;
53879;SDS011;39791;53.184;5.486;2023-03-16T15:45:45;5.97;;;3.92;;
53879;SDS011;39791;53.184;5.486;2023-03-16T15:48:12;8.32;;;4.15;;
53879;SDS011;39791;53.184;5.486;2023-03-16T15:50:39;5.90;;;3.70;;
53879;SDS011;39791;53.184;5.486;2023-03-16T15:53:18;5.40;;;3.70;;
53879;SDS011;39791;53.184;5.486;2023-03-16T15:55:52;6.97;;;4.03;;
53879;SDS011;39791;53.184;5.486;2023-03-16T15:58:23;7.18;;;3.92;;
53879;SDS011;39791;53.184;5.486;2023-03-16T16:00:52;8.23;;;3.97;;
53879;SDS011;39791;53.184;5.486;2023-03-16T16:03:19;7.65;;;4.03;;
53879;SDS011;39791;53.184;5.486;2023-03-16T16:05:45;9.70;;;4.30;;
53879;SDS011;39791;53.184;5.486;2023-03-16T16:08:11;9.10;;;4.10;;
53879;SDS011;39791;53.184;5.486;2023-03-16T16:10:37;9.13;;;4.07;;
53879;SDS011;39791;53.184;5.486;2023-03-16T16:13:04;6.75;;;3.60;;
53879;SDS011;39791;53.184;5.486;2023-03-16T16:15:33;5.50;;;3.80;;